Time;durP1;ratioP1;P1;durP2;ratioP2;P2;SDS_P1;SDS_P2;PMS_P1;PMS_P2;Temp;Humidity;BMP_temperature;BMP_pressure;BME280_temperature;BME280_humidity;BME280_pressure;Samples;Min_cycle;Max_cycle;Signal;HPM_P1;HPM_P2
2023/06/17 00:02:08;;;;;;;5.97;3.50;;;;;;;18.52;55.77;101355.59;4982873;28;21262;-72
2023/06/17 00:04:33;;;;;;;6.53;3.67;;;;;;;18.45;56.04;101350.28;4994859;28;20696;-72
2023/06/17 00:07:00;;;;;;;5.25;4.05;;;;;;;18.39;56.37;101354.50;5003768;28;20030;-73
2023/06/17 00:09:26;;;;;;;5.28;3.20;;;;;;;18.35;56.45;101348.03;4998713;28;20200;-72
2023/06/17 00:12:02;;;;;;;4.95;3.47;;;;;;;18.31;56.55;101352.03;5002108;28;20061;-73
2023/06/17 00:14:28;;;;;;;8.45;3.55;;;;;;;18.25;56.75;101352.78;4999528;28;20492;-72
2023/06/17 00:16:54;;;;;;;6.05;3.10;;;;;;;18.18;57.08;101349.34;5005751;28;20080;-72
2023/06/17 00:19:22;;;;;;;5.68;3.60;;;;;;;18.13;56.81;101347.28;4993778;28;20077;-72
2023/06/17 00:21:49;;;;;;;4.75;3.30;;;;;;;18.09;57.03;101346.06;5000904;28;20042;-72
2023/06/17 00:24:18;;;;;;;5.78;3.25;;;;;;;18.01;57.41;101336.53;4987338;28;20137;-73
2023/06/17 00:26:44;;;;;;;4.13;2.83;;;;;;;17.96;57.55;101343.34;4987110;28;20042;-72
2023/06/17 00:29:10;;;;;;;5.07;3.58;;;;;;;17.92;57.65;101339.50;4992452;28;20048;-72
2023/06/17 00:31:36;;;;;;;7.50;3.65;;;;;;;17.87;57.72;101340.84;5010786;28;20488;-72
2023/06/17 00:34:02;;;;;;;6.00;3.63;;;;;;;17.84;57.78;101348.28;4996981;28;20069;-73
2023/06/17 00:36:28;;;;;;;4.78;3.42;;;;;;;17.83;57.71;101342.22;5011926;28;20034;-72
2023/06/17 00:38:53;;;;;;;6.43;3.40;;;;;;;17.80;57.86;101345.22;4986743;28;20050;-73
2023/06/17 00:41:20;;;;;;;5.43;3.45;;;;;;;17.77;57.84;101337.72;4982169;28;20762;-73
2023/06/17 00:43:46;;;;;;;6.78;3.42;;;;;;;17.69;57.84;101343.13;4965192;28;20042;-72
2023/06/17 00:46:20;;;;;;;7.90;3.30;;;;;;;17.64;58.00;101333.19;4980543;28;20038;-72
2023/06/17 00:48:45;;;;;;;8.23;3.22;;;;;;;17.61;57.93;101344.06;4996065;28;20095;-72
2023/06/17 00:51:11;;;;;;;4.07;2.97;;;;;;;17.55;57.97;101339.56;4988394;28;20037;-73
2023/06/17 00:53:37;;;;;;;7.55;3.58;;;;;;;17.44;58.60;101335.66;4997257;28;20062;-72
2023/06/17 00:56:04;;;;;;;5.13;3.53;;;;;;;17.39;58.91;101338.03;5015302;28;20034;-72
2023/06/17 00:58:30;;;;;;;6.93;3.60;;;;;;;17.31;59.10;101338.97;4981938;28;20053;-72
2023/06/17 01:00:59;;;;;;;5.30;3.63;;;;;;;17.25;59.46;101331.84;5020659;28;20057;-72
2023/06/17 01:03:25;;;;;;;6.53;2.85;;;;;;;17.19;59.81;101329.97;5001347;28;20268;-72
2023/06/17 01:05:56;;;;;;;6.28;3.20;;;;;;;17.15;59.92;101331.34;5001289;28;20044;-73
2023/06/17 01:08:34;;;;;;;4.22;3.30;;;;;;;17.12;60.06;101335.16;5015398;28;20038;-72
2023/06/17 01:11:08;;;;;;;5.55;3.63;;;;;;;17.05;60.51;101333.47;5021511;28;20061;-72
2023/06/17 01:13:34;;;;;;;5.82;3.42;;;;;;;17.00;60.79;101333.19;5017602;28;20073;-73
2023/06/17 01:16:01;;;;;;;6.57;3.60;;;;;;;16.97;60.96;101328.31;5003073;28;20443;-72
2023/06/17 01:18:29;;;;;;;8.35;4.00;;;;;;;16.89;61.23;101331.88;5001573;28;20054;-72
2023/06/17 01:20:56;;;;;;;4.90;3.28;;;;;;;16.87;61.11;101326.81;5025227;28;20057;-72
2023/06/17 01:23:35;;;;;;;7.30;3.88;;;;;;;16.86;61.14;101327.81;4987634;28;20121;-73
2023/06/17 01:26:02;;;;;;;6.63;3.38;;;;;;;16.80;61.03;101325.09;5000156;28;20086;-72
2023/06/17 01:28:29;;;;;;;4.32;3.20;;;;;;;16.76;60.81;101329.88;4999435;28;20118;-72
2023/06/17 01:30:56;;;;;;;8.00;4.53;;;;;;;16.72;60.87;101321.56;4980819;28;20032;-73
2023/06/17 01:33:23;;;;;;;5.90;3.60;;;;;;;16.68;61.12;101319.53;4982663;28;20049;-72
2023/06/17 01:36:19;;;;;;;7.22;4.63;;;;;;;16.64;61.20;101333.97;4999301;28;20950;-72
2023/06/17 01:38:52;;;;;;;5.75;4.03;;;;;;;16.61;61.40;101329.09;5020435;28;20479;-72
2023/06/17 01:41:32;;;;;;;6.63;3.58;;;;;;;16.56;61.43;101324.41;4984797;28;20030;-73
2023/06/17 01:44:00;;;;;;;6.97;4.32;;;;;;;16.54;61.54;101334.25;4997189;28;20035;-72
2023/06/17 01:46:26;;;;;;;5.28;3.78;;;;;;;16.50;62.03;101327.75;5006134;28;20099;-72
2023/06/17 01:48:55;;;;;;;4.63;3.50;;;;;;;16.45;62.69;101327.50;4990890;28;20058;-73
2023/06/17 01:51:21;;;;;;;5.15;3.15;;;;;;;16.41;63.03;101326.25;4988008;28;20849;-73
2023/06/17 01:53:51;;;;;;;5.78;3.97;;;;;;;16.37;63.49;101327.56;4990543;28;20080;-73
2023/06/17 01:56:16;;;;;;;4.60;3.70;;;;;;;16.33;63.45;101330.56;4989665;28;20455;-72
2023/06/17 01:58:45;;;;;;;6.78;3.30;;;;;;;16.25;63.70;101328.03;5010637;28;20045;-73
2023/06/17 02:01:11;;;;;;;7.82;3.75;;;;;;;16.20;64.24;101321.72;4993619;28;20493;-72
2023/06/17 02:03:37;;;;;;;6.28;3.80;;;;;;;16.15;64.47;101320.47;4997744;28;20061;-72
2023/06/17 02:06:02;;;;;;;8.88;3.88;;;;;;;16.13;64.71;101326.88;4990541;28;20037;-72
2023/06/17 02:08:28;;;;;;;5.28;3.65;;;;;;;16.11;64.47;101326.25;5010986;28;20041;-72
2023/06/17 02:10:54;;;;;;;5.50;3.67;;;;;;;16.07;64.46;101328.41;5009092;28;20396;-72
2023/06/17 02:13:19;;;;;;;4.75;3.40;;;;;;;16.05;64.24;101319.09;5009846;28;20034;-73
2023/06/17 02:15:45;;;;;;;5.30;3.78;;;;;;;16.04;64.16;101323.50;5005798;28;20037;-72
2023/06/17 02:18:14;;;;;;;6.90;3.58;;;;;;;16.00;64.11;101326.69;4992231;28;20478;-73
2023/06/17 02:20:43;;;;;;;8.02;4.47;;;;;;;15.95;64.24;101325.41;5024069;28;20038;-73
2023/06/17 02:23:08;;;;;;;7.63;3.97;;;;;;;15.91;64.26;101328.56;5005418;28;20037;-72
2023/06/17 02:25:36;;;;;;;7.03;4.07;;;;;;;15.88;64.40;101324.50;5040967;28;20034;-72
2023/06/17 02:28:02;;;;;;;7.57;3.72;;;;;;;15.84;64.46;101322.41;5017296;28;20056;-72
2023/06/17 02:30:27;;;;;;;6.03;3.97;;;;;;;15.79;64.79;101324.75;5006015;28;21042;-72
2023/06/17 02:32:53;;;;;;;8.10;3.42;;;;;;;15.75;64.69;101321.69;5029976;28;20041;-72
2023/06/17 02:35:19;;;;;;;6.03;3.50;;;;;;;15.71;65.12;101326.44;5019235;28;20500;-72
2023/06/17 02:37:45;;;;;;;7.88;4.10;;;;;;;15.63;65.42;101317.84;4989067;28;20030;-73
2023/06/17 02:40:11;;;;;;;6.70;4.07;;;;;;;15.43;66.19;101317.53;4967861;28;20069;-72
2023/06/17 02:42:37;;;;;;;7.95;3.78;;;;;;;15.25;67.01;101317.81;4985368;28;20030;-72
2023/06/17 02:45:03;;;;;;;7.85;3.95;;;;;;;15.10;67.59;101315.13;4986462;28;20438;-72
2023/06/17 02:47:28;;;;;;;5.50;3.80;;;;;;;14.96;68.12;101317.50;5002885;28;20038;-72
2023/06/17 02:49:54;;;;;;;4.82;3.70;;;;;;;14.87;68.75;101317.72;4984978;28;20050;-72
2023/06/17 02:52:21;;;;;;;5.63;3.53;;;;;;;14.79;69.02;101318.56;4989912;28;20033;-72
2023/06/17 02:54:46;;;;;;;8.52;3.70;;;;;;;14.75;69.19;101312.06;4994468;28;20042;-72
2023/06/17 02:57:17;;;;;;;8.70;3.85;;;;;;;14.78;69.19;101317.72;4985842;28;20034;-73
2023/06/17 02:59:42;;;;;;;6.30;4.03;;;;;;;14.85;68.64;101312.66;4992352;28;20043;-73
2023/06/17 03:02:08;;;;;;;7.45;3.85;;;;;;;14.88;68.69;101312.31;4986772;28;20529;-72
2023/06/17 03:04:37;;;;;;;7.40;4.03;;;;;;;14.86;68.96;101316.06;4968284;28;20049;-72
2023/06/17 03:07:06;;;;;;;9.25;3.92;;;;;;;14.87;68.92;101320.31;4987864;28;20038;-73
2023/06/17 03:09:32;;;;;;;5.88;3.58;;;;;;;14.86;68.73;101319.53;4984971;28;20049;-72
2023/06/17 03:11:59;;;;;;;7.47;4.10;;;;;;;14.78;69.08;101314.31;4997757;28;20034;-72
2023/06/17 03:14:25;;;;;;;8.02;3.70;;;;;;;14.70;69.43;101316.97;4994972;28;20137;-72
2023/06/17 03:16:52;;;;;;;6.03;4.30;;;;;;;14.63;69.85;101313.41;4990965;28;20044;-72
2023/06/17 03:19:18;;;;;;;9.70;4.25;;;;;;;14.64;70.05;101321.09;5009879;28;20044;-72
2023/06/17 03:21:45;;;;;;;6.80;3.88;;;;;;;14.65;70.05;101309.66;5004406;28;20038;-73
2023/06/17 03:24:11;;;;;;;6.05;3.95;;;;;;;14.70;69.93;101311.75;4986971;28;20046;-72
2023/06/17 03:26:36;;;;;;;6.25;3.70;;;;;;;14.71;69.50;101314.22;4989170;28;20092;-72
2023/06/17 03:29:03;;;;;;;7.63;3.88;;;;;;;14.66;69.80;101308.69;4986276;28;20054;-72
2023/06/17 03:31:29;;;;;;;6.60;4.15;;;;;;;14.67;69.93;101318.13;4985045;28;20038;-72
2023/06/17 03:33:55;;;;;;;9.30;4.65;;;;;;;14.67;70.02;101309.47;4988630;28;20174;-72
2023/06/17 03:36:30;;;;;;;5.97;4.05;;;;;;;14.65;70.12;101304.44;5015875;28;20053;-72
2023/06/17 03:38:57;;;;;;;7.03;4.47;;;;;;;14.64;70.18;101307.22;4983652;28;20050;-72
2023/06/17 03:41:26;;;;;;;7.38;4.55;;;;;;;14.64;70.15;101302.00;5015003;28;20049;-72
2023/06/17 03:43:52;;;;;;;6.28;4.68;;;;;;;14.64;70.16;101305.44;4976087;28;20390;-70
2023/06/17 03:46:19;;;;;;;6.13;3.83;;;;;;;14.65;70.23;101308.84;4988867;28;20026;-72
2023/06/17 03:48:45;;;;;;;11.43;4.45;;;;;;;14.65;70.29;101308.84;4987704;28;20038;-72
2023/06/17 03:51:11;;;;;;;6.90;4.35;;;;;;;14.65;70.70;101301.00;4987563;28;20058;-72
2023/06/17 03:53:36;;;;;;;5.95;3.95;;;;;;;14.63;70.70;101298.56;5020301;28;20053;-72
2023/06/17 03:56:03;;;;;;;10.38;5.32;;;;;;;14.63;70.92;101297.75;5023574;28;20025;-72
2023/06/17 03:58:30;;;;;;;10.15;4.60;;;;;;;14.64;71.19;101297.59;4983797;28;20034;-72
2023/06/17 04:00:56;;;;;;;8.23;4.20;;;;;;;14.62;71.13;101299.56;5022008;28;20038;-72
2023/06/17 04:03:25;;;;;;;6.55;4.65;;;;;;;14.60;71.27;101291.91;4989893;28;20493;-70
2023/06/17 04:05:54;;;;;;;10.98;4.88;;;;;;;14.61;71.34;101292.72;4990000;28;21053;-72
2023/06/17 04:08:22;;;;;;;9.20;4.60;;;;;;;14.62;71.39;101296.97;5000934;28;20040;-72
2023/06/17 04:10:50;;;;;;;6.47;4.35;;;;;;;14.65;71.33;101299.22;4987322;28;20040;-72
2023/06/17 04:13:16;;;;;;;6.13;4.32;;;;;;;14.68;71.63;101296.25;5003960;28;20084;-72
2023/06/17 04:15:42;;;;;;;9.50;4.43;;;;;;;14.71;71.74;101305.53;4990794;28;20041;-72
2023/06/17 04:18:07;;;;;;;6.80;4.55;;;;;;;14.71;71.80;101300.31;5002289;28;20034;-73
2023/06/17 04:20:36;;;;;;;8.30;3.92;;;;;;;14.71;71.75;101298.53;4970210;28;20030;-72
2023/06/17 04:23:01;;;;;;;9.50;4.40;;;;;;;14.66;72.40;101300.03;5007502;28;20030;-73
2023/06/17 04:25:32;;;;;;;7.82;4.40;;;;;;;14.65;72.58;101293.19;4976299;28;20014;-72
2023/06/17 04:28:01;;;;;;;11.45;4.60;;;;;;;14.68;72.47;101300.69;5004583;28;20030;-72
2023/06/17 04:30:30;;;;;;;7.60;3.90;;;;;;;14.73;72.80;101304.41;4976915;28;20068;-72
2023/06/17 04:32:59;;;;;;;7.43;4.13;;;;;;;14.76;72.96;101304.03;4999553;28;20034;-72
2023/06/17 04:35:29;;;;;;;7.53;4.72;;;;;;;14.82;72.56;101299.94;4986481;28;20042;-72
2023/06/17 04:37:56;;;;;;;8.25;5.10;;;;;;;14.85;72.50;101302.22;4984917;28;20053;-72
2023/06/17 04:40:24;;;;;;;9.68;4.90;;;;;;;14.86;73.09;101297.78;4984172;28;20058;-72
2023/06/17 04:42:51;;;;;;;10.75;4.72;;;;;;;14.88;73.75;101301.03;4984189;28;20026;-72
2023/06/17 04:45:17;;;;;;;7.40;4.53;;;;;;;14.88;73.91;101301.03;4982822;28;20398;-72
2023/06/17 04:47:44;;;;;;;7.75;4.40;;;;;;;14.93;73.72;101296.13;4981638;28;20057;-72
2023/06/17 04:50:15;;;;;;;7.13;4.50;;;;;;;15.01;73.55;101305.72;4999098;28;20188;-72
2023/06/17 04:52:43;;;;;;;6.78;4.72;;;;;;;15.06;73.12;101298.19;4986366;28;20042;-72
2023/06/17 04:55:13;;;;;;;6.85;4.60;;;;;;;15.08;73.96;101304.03;4998124;28;20050;-72
2023/06/17 04:57:42;;;;;;;6.97;4.68;;;;;;;15.11;74.44;101301.09;5014060;28;20026;-73
2023/06/17 05:00:13;;;;;;;6.18;4.35;;;;;;;15.18;74.52;101304.59;5010303;28;20042;-72
2023/06/17 05:02:40;;;;;;;6.55;4.35;;;;;;;15.24;74.44;101298.72;4985349;28;20033;-72
2023/06/17 05:05:09;;;;;;;6.78;4.50;;;;;;;15.32;73.98;101303.88;4986475;28;20108;-72
2023/06/17 05:07:35;;;;;;;9.27;4.30;;;;;;;15.43;73.34;101302.66;4998721;28;20031;-72
2023/06/17 05:10:02;;;;;;;7.00;4.40;;;;;;;15.52;73.65;101301.59;4980791;28;20034;-72
2023/06/17 05:12:29;;;;;;;6.00;4.38;;;;;;;15.61;73.65;101299.69;4988222;28;20034;-72
2023/06/17 05:14:55;;;;;;;8.68;4.97;;;;;;;15.70;73.81;101303.88;5002458;28;20093;-73
2023/06/17 05:17:20;;;;;;;6.47;5.03;;;;;;;15.82;73.51;101303.47;4990893;28;20030;-72
2023/06/17 05:19:46;;;;;;;7.93;4.40;;;;;;;15.92;73.35;101299.63;4982421;28;20053;-72
2023/06/17 05:22:15;;;;;;;8.10;4.72;;;;;;;16.07;73.50;101298.81;5021874;28;20640;-72
2023/06/17 05:24:40;;;;;;;9.15;5.30;;;;;;;16.20;73.11;101306.03;5021661;28;20077;-72
2023/06/17 05:27:06;;;;;;;8.00;5.47;;;;;;;16.34;72.12;101305.22;4988381;28;20513;-72
2023/06/17 05:29:32;;;;;;;9.15;4.30;;;;;;;16.50;71.99;101299.78;5000240;28;20039;-72
2023/06/17 05:31:58;;;;;;;8.63;5.10;;;;;;;16.68;71.40;101306.44;5022507;28;20066;-72
2023/06/17 05:34:23;;;;;;;11.13;4.93;;;;;;;16.83;70.79;101298.56;5005789;28;20054;-73
2023/06/17 05:36:50;;;;;;;7.32;4.07;;;;;;;17.00;70.07;101302.56;5007828;28;20038;-72
2023/06/17 05:39:15;;;;;;;7.45;4.43;;;;;;;17.18;69.04;101298.72;5024581;28;20073;-73
2023/06/17 05:41:47;;;;;;;8.57;5.78;;;;;;;17.37;66.96;101295.47;4989743;28;20042;-72
2023/06/17 05:44:18;;;;;;;6.22;4.55;;;;;;;17.56;66.30;101301.06;5005953;28;20138;-72
2023/06/17 05:46:45;;;;;;;9.48;5.80;;;;;;;17.75;63.26;101302.22;5005231;28;20104;-72
2023/06/17 05:49:14;;;;;;;10.07;6.65;;;;;;;17.94;61.71;101303.38;5005565;28;20104;-72
2023/06/17 05:51:39;;;;;;;10.38;6.45;;;;;;;18.08;59.85;101297.19;4992515;28;20029;-72
2023/06/17 05:54:05;;;;;;;10.80;6.15;;;;;;;18.26;58.43;101301.94;5003599;28;20035;-72
2023/06/17 05:56:30;;;;;;;9.73;5.82;;;;;;;18.46;58.86;101304.66;5004183;28;20030;-72
2023/06/17 05:58:56;;;;;;;9.35;6.07;;;;;;;18.64;58.46;101301.47;5010945;28;20042;-72
2023/06/17 06:01:28;;;;;;;9.20;5.20;;;;;;;18.86;57.74;101303.00;5002588;28;20104;-72
2023/06/17 06:03:54;;;;;;;8.55;5.65;;;;;;;19.07;57.03;101295.97;5001256;28;20053;-73
2023/06/17 06:06:19;;;;;;;14.23;6.72;;;;;;;19.28;56.40;101299.41;5037785;28;20382;-72
2023/06/17 06:08:45;;;;;;;16.80;7.50;;;;;;;19.49;55.49;101296.56;4984877;28;20053;-72
2023/06/17 06:11:11;;;;;;;9.25;6.20;;;;;;;19.67;55.27;101297.78;4990513;28;20023;-72
2023/06/17 06:13:37;;;;;;;9.48;6.50;;;;;;;19.89;54.36;101293.94;4993070;28;20508;-72
2023/06/17 06:16:03;;;;;;;8.65;5.07;;;;;;;20.16;53.99;101293.88;5012492;28;20026;-73
2023/06/17 06:18:32;;;;;;;11.60;5.88;;;;;;;20.35;53.75;101300.88;5005006;28;20144;-73
2023/06/17 06:20:57;;;;;;;13.90;6.50;;;;;;;20.64;52.92;101297.94;5004261;28;20053;-73
2023/06/17 06:23:23;;;;;;;15.82;7.93;;;;;;;20.77;53.03;101298.66;5025102;28;20046;-73
2023/06/17 06:25:48;;;;;;;15.00;6.35;;;;;;;21.10;52.56;101302.16;5009374;28;20030;-72
2023/06/17 06:28:14;;;;;;;13.02;8.20;;;;;;;20.96;51.10;101301.41;5005152;28;20050;-72
2023/06/17 06:30:41;;;;;;;12.50;8.25;;;;;;;20.86;51.50;101299.25;5003058;28;20025;-72
2023/06/17 06:33:06;;;;;;;11.15;6.65;;;;;;;21.17;52.06;101305.50;5006937;28;20022;-73
2023/06/17 06:35:32;;;;;;;18.85;7.75;;;;;;;21.38;52.12;101307.00;4980875;28;20389;-73
2023/06/17 06:37:58;;;;;;;12.27;6.60;;;;;;;21.73;50.49;101309.16;4987745;28;20185;-72
2023/06/17 06:40:24;;;;;;;21.38;11.75;;;;;;;22.22;48.97;101302.13;4984606;28;20770;-73
2023/06/17 06:42:50;;;;;;;16.55;9.30;;;;;;;22.60;48.17;101314.28;5003466;28;20034;-73
2023/06/17 06:45:22;;;;;;;13.52;8.00;;;;;;;22.89;47.55;101312.66;5015019;28;20054;-72
2023/06/17 06:47:47;;;;;;;13.05;7.05;;;;;;;22.99;46.37;101306.03;4985954;28;20026;-72
2023/06/17 06:50:13;;;;;;;12.70;7.25;;;;;;;23.34;46.20;101308.78;4979669;28;20050;-73
2023/06/17 06:52:39;;;;;;;15.43;8.35;;;;;;;23.39;44.54;101298.28;4983124;28;20065;-73
2023/06/17 06:55:05;;;;;;;11.93;7.63;;;;;;;23.74;44.88;101294.03;4975399;28;20046;-73
2023/06/17 06:57:31;;;;;;;14.20;6.88;;;;;;;24.02;43.87;101309.22;4984131;28;20045;-73
2023/06/17 06:59:56;;;;;;;13.88;6.95;;;;;;;24.28;43.22;101303.41;4983949;28;20525;-73
2023/06/17 07:02:23;;;;;;;16.67;8.00;;;;;;;24.53;41.89;101302.28;4988516;28;20034;-73
2023/06/17 07:04:49;;;;;;;11.05;7.10;;;;;;;24.74;40.90;101305.31;4989631;28;20045;-74
2023/06/17 07:07:20;;;;;;;16.15;6.10;;;;;;;25.04;40.45;101308.47;4987363;28;20026;-73
2023/06/17 07:09:45;;;;;;;18.35;7.72;;;;;;;25.21;39.44;101302.38;5014929;28;20041;-73
2023/06/17 07:12:11;;;;;;;9.35;6.82;;;;;;;25.48;39.08;101301.75;4991732;28;20038;-73
2023/06/17 07:14:38;;;;;;;13.55;5.78;;;;;;;25.96;38.40;101305.63;4979731;28;20572;-73
2023/06/17 07:17:04;;;;;;;10.38;5.38;;;;;;;26.19;37.61;101309.88;4989229;28;20038;-73
2023/06/17 07:19:30;;;;;;;10.20;5.70;;;;;;;26.29;37.86;101301.19;4982711;28;20070;-73
2023/06/17 07:21:56;;;;;;;11.45;6.35;;;;;;;26.33;36.44;101304.97;5002724;28;20117;-73
2023/06/17 07:24:22;;;;;;;9.43;5.80;;;;;;;26.40;36.88;101298.41;4984262;28;20051;-73
2023/06/17 07:26:48;;;;;;;11.82;5.40;;;;;;;26.62;37.50;101300.25;5004782;28;20030;-73
2023/06/17 07:29:13;;;;;;;13.90;6.22;;;;;;;26.88;37.88;101301.28;4983568;28;20536;-72
2023/06/17 07:31:39;;;;;;;11.38;5.47;;;;;;;26.95;37.29;101296.53;5002207;28;20382;-73
2023/06/17 07:34:04;;;;;;;12.23;5.75;;;;;;;26.92;36.56;101299.72;5001887;28;20061;-73
2023/06/17 07:36:30;;;;;;;14.80;5.80;;;;;;;27.25;35.82;101297.84;5002228;28;20031;-74
2023/06/17 07:38:57;;;;;;;11.55;5.78;;;;;;;27.57;34.49;101295.13;4979006;28;20049;-73
2023/06/17 07:41:23;;;;;;;10.60;4.88;;;;;;;28.03;34.13;101291.09;5006585;28;20508;-74
2023/06/17 07:43:48;;;;;;;17.33;6.18;;;;;;;27.57;32.97;101297.78;5003036;28;20161;-73
2023/06/17 07:46:14;;;;;;;11.38;6.13;;;;;;;27.40;33.64;101291.03;4984644;28;20038;-72
2023/06/17 07:48:39;;;;;;;12.40;5.97;;;;;;;27.36;34.19;101288.88;4999732;28;20069;-73
2023/06/17 07:51:05;;;;;;;15.25;5.63;;;;;;;27.52;34.11;101296.97;5003829;28;20029;-73
2023/06/17 07:53:31;;;;;;;15.05;6.07;;;;;;;27.81;32.86;101291.25;4980692;28;20046;-73
2023/06/17 07:55:56;;;;;;;11.73;5.85;;;;;;;27.86;32.59;101296.59;4999719;28;20088;-73
2023/06/17 07:58:22;;;;;;;13.70;5.45;;;;;;;28.02;31.78;101294.84;4987514;28;20508;-74
2023/06/17 08:00:47;;;;;;;9.52;4.47;;;;;;;28.52;31.67;101296.84;5002139;28;20030;-74
2023/06/17 08:03:16;;;;;;;13.40;5.28;;;;;;;28.57;30.54;101295.25;4990415;28;20581;-72
2023/06/17 08:05:41;;;;;;;9.32;4.30;;;;;;;28.79;30.15;101285.13;4986904;28;20936;-74
2023/06/17 08:08:07;;;;;;;9.98;4.75;;;;;;;28.50;29.86;101282.97;4986074;28;20038;-72
2023/06/17 08:10:32;;;;;;;13.82;5.15;;;;;;;28.68;30.11;101294.19;5009864;28;20026;-73
2023/06/17 08:12:58;;;;;;;6.95;3.88;;;;;;;28.99;29.52;101287.00;5005775;28;20113;-73
2023/06/17 08:15:23;;;;;;;7.13;4.22;;;;;;;29.19;29.39;101283.53;5001418;28;21916;-73
2023/06/17 08:17:52;;;;;;;10.00;4.70;;;;;;;29.24;29.30;101278.19;5020713;28;20045;-73
2023/06/17 08:20:21;;;;;;;9.25;5.47;;;;;;;29.06;29.58;101282.19;5012148;28;20034;-73
2023/06/17 08:22:47;;;;;;;9.85;3.92;;;;;;;29.00;29.31;101277.91;5013336;28;20503;-73
2023/06/17 08:25:12;;;;;;;10.57;4.25;;;;;;;28.98;28.40;101276.59;5006229;28;20045;-73
2023/06/17 08:27:38;;;;;;;7.53;3.88;;;;;;;29.17;28.43;101275.00;5006873;28;20029;-72
2023/06/17 08:30:08;;;;;;;7.38;4.25;;;;;;;29.43;29.45;101272.28;5007339;28;20033;-73
2023/06/17 08:32:33;;;;;;;7.95;5.00;;;;;;;29.41;29.59;101259.19;5002888;28;20132;-73
2023/06/17 08:35:05;;;;;;;8.25;3.97;;;;;;;29.41;28.66;101266.41;5009071;28;20076;-73
2023/06/17 08:37:31;;;;;;;9.45;4.10;;;;;;;28.93;29.12;101262.19;5022364;28;20030;-73
2023/06/17 08:39:56;;;;;;;9.38;3.85;;;;;;;28.79;29.94;101257.66;5005247;28;20040;-73
2023/06/17 08:42:22;;;;;;;9.82;4.35;;;;;;;28.75;28.80;101260.06;4994868;28;20033;-73
2023/06/17 08:44:48;;;;;;;10.15;4.03;;;;;;;29.35;28.70;101262.13;5005654;28;20045;-74
2023/06/17 08:47:15;;;;;;;7.57;3.67;;;;;;;29.44;26.99;101249.81;5011248;28;20396;-72
2023/06/17 08:49:44;;;;;;;6.40;3.20;;;;;;;29.85;26.48;101253.16;5004947;28;20046;-73
2023/06/17 08:52:15;;;;;;;4.32;3.20;;;;;;;29.67;25.37;101261.78;5029897;28;20479;-73
2023/06/17 08:54:41;;;;;;;5.72;3.40;;;;;;;30.16;25.63;101261.03;5012424;28;20937;-73
2023/06/17 08:57:13;;;;;;;6.20;3.50;;;;;;;30.42;25.71;101251.00;5027101;28;20041;-73
2023/06/17 08:59:40;;;;;;;8.70;4.03;;;;;;;30.04;27.38;101252.53;5031364;28;20045;-73
2023/06/17 09:02:07;;;;;;;5.47;3.60;;;;;;;30.19;28.00;101257.00;4999673;28;20088;-73
2023/06/17 09:04:34;;;;;;;9.00;4.10;;;;;;;30.50;27.83;101249.59;5000949;28;20048;-72
2023/06/17 09:06:59;;;;;;;10.80;3.65;;;;;;;30.23;27.71;101245.47;5008588;28;20033;-73
2023/06/17 09:09:26;;;;;;;4.43;3.00;;;;;;;30.55;27.54;101251.41;5011161;28;20046;-73
2023/06/17 09:11:52;;;;;;;6.65;3.72;;;;;;;30.66;27.38;101248.38;4987316;28;20397;-73
2023/06/17 09:14:19;;;;;;;9.60;3.78;;;;;;;30.59;26.06;101247.94;4985300;28;20136;-72
2023/06/17 09:16:45;;;;;;;8.50;4.32;;;;;;;30.51;27.20;101247.72;4989590;28;20038;-73
2023/06/17 09:19:13;;;;;;;5.05;3.50;;;;;;;30.64;27.59;101242.50;5018289;28;20054;-73
2023/06/17 09:21:45;;;;;;;7.35;3.58;;;;;;;30.38;26.79;101244.59;4983689;28;20030;-74
2023/06/17 09:24:14;;;;;;;5.10;2.90;;;;;;;30.30;26.96;101244.38;4985865;28;20057;-73
2023/06/17 09:26:44;;;;;;;7.00;3.20;;;;;;;30.55;27.81;101254.09;5019820;28;20058;-74
2023/06/17 09:29:13;;;;;;;4.05;3.15;;;;;;;30.70;26.24;101247.81;4989801;28;20954;-74
2023/06/17 09:31:53;;;;;;;6.35;3.40;;;;;;;30.97;24.97;101240.13;4988069;28;20025;-74
2023/06/17 09:34:20;;;;;;;4.63;3.10;;;;;;;31.34;24.50;101243.19;4983570;28;20576;-73
2023/06/17 09:36:52;;;;;;;5.60;3.22;;;;;;;31.55;25.41;101241.09;5015018;28;20062;-74
2023/06/17 09:39:18;;;;;;;6.80;2.95;;;;;;;31.01;26.77;101241.16;4984188;28;20121;-74
2023/06/17 09:41:44;;;;;;;6.97;3.42;;;;;;;30.62;24.85;101255.38;4984106;28;20089;-74
2023/06/17 09:44:11;;;;;;;5.05;3.70;;;;;;;30.45;25.46;101249.63;4982220;28;20041;-74
2023/06/17 09:46:39;;;;;;;3.95;2.92;;;;;;;30.72;25.23;101246.44;4983850;28;20053;-74
2023/06/17 09:49:15;;;;;;;6.05;3.47;;;;;;;30.67;24.92;101241.16;4983808;28;20127;-74
2023/06/17 09:51:42;;;;;;;14.10;4.03;;;;;;;30.89;25.68;101243.34;4984424;28;20592;-74
2023/06/17 09:54:10;;;;;;;5.32;3.30;;;;;;;31.18;25.96;101246.06;4982040;28;20050;-74
2023/06/17 09:56:37;;;;;;;6.45;3.05;;;;;;;31.48;26.70;101240.69;4996369;28;20037;-74
2023/06/17 09:59:04;;;;;;;5.78;3.90;;;;;;;31.27;25.45;101242.75;4979319;28;20521;-74
2023/06/17 10:01:30;;;;;;;9.38;3.40;;;;;;;31.08;25.71;101248.03;4985280;28;20031;-74
2023/06/17 10:04:00;;;;;;;4.93;3.33;;;;;;;30.80;25.52;101248.53;4986310;28;20050;-74
2023/06/17 10:06:29;;;;;;;7.72;3.60;;;;;;;31.09;25.83;101238.94;4986162;28;20026;-74
2023/06/17 10:08:56;;;;;;;7.15;3.30;;;;;;;31.43;26.17;101236.91;5027374;28;20052;-73
2023/06/17 10:11:23;;;;;;;6.10;3.53;;;;;;;31.11;25.91;101236.75;5007746;28;20061;-74
2023/06/17 10:14:13;;;;;;;4.88;3.10;;;;;;;31.48;26.28;101246.03;5038232;28;20076;-74
2023/06/17 10:16:48;;;;;;;7.35;3.47;;;;;;;31.70;26.54;101237.44;5020346;28;20034;-74
2023/06/17 10:19:18;;;;;;;5.65;3.75;;;;;;;31.98;25.17;101228.47;5006893;28;20049;-73
2023/06/17 10:21:46;;;;;;;6.45;4.47;;;;;;;32.20;25.56;101232.47;4995066;28;20418;-76
2023/06/17 10:24:13;;;;;;;6.40;4.43;;;;;;;32.03;26.68;101238.38;5021725;28;20132;-75
2023/06/17 10:26:39;;;;;;;11.30;4.10;;;;;;;31.93;26.02;101238.47;5007591;28;20508;-75
2023/06/17 10:29:07;;;;;;;3.72;2.88;;;;;;;31.74;26.47;101233.91;5023462;28;20046;-74
2023/06/17 10:31:38;;;;;;;4.20;3.33;;;;;;;32.07;26.18;101231.31;5006340;28;20022;-75
2023/06/17 10:34:04;;;;;;;6.05;3.30;;;;;;;31.87;26.12;101234.25;5025950;28;20444;-74
2023/06/17 10:36:33;;;;;;;4.57;3.45;;;;;;;31.80;26.42;101229.28;5007721;28;20087;-76
2023/06/17 10:39:04;;;;;;;7.90;3.65;;;;;;;31.85;26.00;101223.81;5041065;28;20049;-74
2023/06/17 10:41:59;;;;;;;3.67;2.92;;;;;;;32.12;25.87;101217.84;5005498;28;20041;-75
2023/06/17 10:44:34;;;;;;;5.95;3.50;;;;;;;32.20;25.34;101221.75;5028160;28;20062;-75
2023/06/17 10:46:59;;;;;;;4.47;3.80;;;;;;;31.91;25.26;101216.50;5026275;28;20374;-74
2023/06/17 10:49:43;;;;;;;7.30;3.28;;;;;;;31.71;25.74;101221.06;5038778;28;20061;-74
2023/06/17 10:52:13;;;;;;;6.95;3.03;;;;;;;31.57;26.54;101212.97;5007197;28;20113;-74
2023/06/17 10:54:50;;;;;;;8.73;3.78;;;;;;;31.28;26.25;101220.25;5005423;28;20463;-74
2023/06/17 10:57:15;;;;;;;9.63;3.80;;;;;;;31.63;26.40;101211.81;5019241;28;20033;-74
2023/06/17 10:59:41;;;;;;;6.68;3.50;;;;;;;31.78;25.26;101218.84;5034061;28;20575;-75
2023/06/17 11:02:07;;;;;;;7.47;3.65;;;;;;;31.99;24.95;101213.97;5008432;28;20034;-74
2023/06/17 11:04:35;;;;;;;7.95;3.67;;;;;;;31.59;24.58;101208.09;5008679;28;20518;-75
2023/06/17 11:07:04;;;;;;;6.07;3.40;;;;;;;31.61;24.51;101203.25;5020848;28;20037;-75
2023/06/17 11:09:32;;;;;;;5.55;2.80;;;;;;;31.71;24.71;101204.22;5032706;28;20072;-74
2023/06/17 11:12:00;;;;;;;4.90;3.60;;;;;;;31.42;24.25;101210.44;5009537;28;20022;-75
2023/06/17 11:14:30;;;;;;;5.15;3.28;;;;;;;31.22;25.35;101198.88;4996137;28;20780;-74
2023/06/17 11:16:56;;;;;;;4.85;3.78;;;;;;;31.23;24.05;101199.66;4991541;28;20034;-74
2023/06/17 11:19:23;;;;;;;5.72;3.10;;;;;;;31.23;23.65;101200.47;4984751;28;20120;-74
2023/06/17 11:22:03;;;;;;;8.52;3.58;;;;;;;31.15;24.11;101194.94;4980981;28;20050;-74
2023/06/17 11:24:30;;;;;;;7.45;3.45;;;;;;;31.30;24.80;101196.66;5018467;28;20070;-75
2023/06/17 11:27:00;;;;;;;6.68;3.65;;;;;;;31.57;25.25;101191.53;4997291;28;20030;-75